createdAt,value
2019-04-22T00:00:47.381Z,101236.55
2019-04-22T00:03:18.387Z,101235.27
2019-04-22T00:06:05.543Z,101232.78
2019-04-22T00:08:43.064Z,101233.05
2019-04-22T00:11:19.601Z,101231.56
2019-04-22T00:13:49.161Z,101220.47
2019-04-22T00:16:10.870Z,101222.03
2019-04-22T00:18:59.119Z,101224.16
2019-04-22T00:21:12.970Z,101222.67
2019-04-22T00:23:49.968Z,101220.42
2019-04-22T00:26:16.194Z,101216.19
2019-04-22T00:28:52.256Z,101206.77
2019-04-22T00:31:18.910Z,101213.23
2019-04-22T00:33:49.676Z,101210.19
2019-04-22T00:36:16.210Z,101206.73
2019-04-22T00:38:52.694Z,101213.32
2019-04-22T00:41:26.698Z,101206.02
2019-04-22T00:43:48.206Z,101202.67
2019-04-22T00:46:17.754Z,101211.62
2019-04-22T00:48:57.576Z,101206.59
2019-04-22T00:51:25.287Z,101208.39
2019-04-22T00:53:51.244Z,101203.09
2019-04-22T00:56:17.360Z,101197.44
2019-04-22T00:58:46.717Z,101197.44
2019-04-22T01:01:20.464Z,101199.98
2019-04-22T01:03:59.107Z,101200.63
2019-04-22T01:06:20.457Z,101193.82
2019-04-22T01:11:29.484Z,101189.60
2019-04-22T01:13:53.299Z,101194.63
2019-04-22T01:16:26.322Z,101190.71
2019-04-22T01:18:54.876Z,101188.05
2019-04-22T01:21:30.761Z,101184.41
2019-04-22T01:23:53.324Z,101184.73
2019-04-22T01:26:25.356Z,101176.50
2019-04-22T01:28:50.573Z,101177.83
2019-04-22T01:31:17.288Z,101170.53
2019-04-22T01:33:46.517Z,101166.59
2019-04-22T01:36:30.527Z,101169.39
2019-04-22T01:39:05.421Z,101164.55
2019-04-22T01:41:41.818Z,101160.58
2019-04-22T01:44:17.483Z,101164.74
2019-04-22T01:46:36.695Z,101160.60
2019-04-22T01:49:08.223Z,101159.91
2019-04-22T01:51:52.929Z,101159.02
2019-04-22T01:54:15.163Z,101163.88
2019-04-22T01:56:44.972Z,101154.20
2019-04-22T01:58:58.938Z,101158.20
2019-04-22T02:01:44.520Z,101146.84
2019-04-22T02:04:17.832Z,101148.41
2019-04-22T02:06:42.169Z,101143.53
2019-04-22T02:09:17.713Z,101144.12
2019-04-22T02:11:46.718Z,101144.76
2019-04-22T02:14:11.914Z,101135.00
2019-04-22T02:16:41.320Z,101132.07
2019-04-22T02:19:20.754Z,101130.44
2019-04-22T02:21:42.321Z,101129.83
2019-04-22T02:24:21.827Z,101127.11
2019-04-22T02:26:40.452Z,101107.16
2019-04-22T02:29:15.110Z,101107.16
2019-04-22T02:31:59.587Z,101123.16
2019-04-22T02:34:25.130Z,101121.18
2019-04-22T02:36:50.875Z,101121.80
2019-04-22T02:39:38.353Z,101125.91
2019-04-22T02:41:49.716Z,101128.11
2019-04-22T02:44:19.328Z,101122.55
2019-04-22T02:47:07.874Z,101122.63
2019-04-22T02:49:26.798Z,101123.06
2019-04-22T02:51:44.941Z,101118.72
2019-04-22T02:56:45.457Z,101115.79
2019-04-22T03:01:51.391Z,101109.42
2019-04-22T03:04:24.709Z,101117.59
2019-04-22T03:06:42.944Z,101122.36
2019-04-22T03:09:25.502Z,101115.13
2019-04-22T03:12:02.661Z,101114.05
2019-04-22T03:14:22.349Z,101104.05
2019-04-22T03:16:51.194Z,101105.12
2019-04-22T03:19:36.629Z,101099.38
2019-04-22T03:24:29.496Z,101100.58
2019-04-22T03:26:58.895Z,101084.75
2019-04-22T03:42:45.706Z,101081.58
2019-04-22T03:45:20.195Z,101081.16
2019-04-22T03:47:48.078Z,101079.81
2019-04-22T03:50:16.443Z,101081.61
2019-04-22T03:52:43.370Z,101072.33
2019-04-22T03:55:10.932Z,101076.05
2019-04-22T04:00:17.865Z,101067.38
2019-04-22T04:05:22.210Z,101068.36
2019-04-22T04:07:47.524Z,101068.13
2019-04-22T04:10:25.254Z,101064.80
2019-04-22T04:45:36.638Z,101044.75
2019-04-22T04:53:01.221Z,101043.91
2019-04-22T04:58:10.157Z,101048.54
2019-04-22T05:02:52.137Z,101044.41
2019-04-22T05:05:31.480Z,101038.00
2019-04-22T05:07:48.516Z,101039.52
2019-04-22T05:12:56.876Z,101030.45
2019-04-22T05:15:27.606Z,101031.30
2019-04-22T05:17:54.299Z,101034.02
2019-04-22T05:20:35.478Z,101035.12
2019-04-22T05:22:44.421Z,101028.64
2019-04-22T05:25:17.930Z,101034.84
2019-04-22T05:27:46.892Z,101031.45
2019-04-22T05:35:35.782Z,101031.84
2019-04-22T05:37:50.272Z,101027.52
2019-04-22T05:40:34.826Z,101027.26
2019-04-22T05:42:51.530Z,101026.50
2019-04-22T05:45:19.131Z,101028.81
2019-04-22T05:48:02.910Z,101020.69
2019-04-22T05:50:18.715Z,101020.00
2019-04-22T05:52:57.321Z,101024.29
2019-04-22T05:55:52.435Z,101015.24
2019-04-22T05:57:59.668Z,101013.27
2019-04-22T06:05:43.877Z,101008.26
2019-04-22T06:08:01.021Z,101016.03
2019-04-22T06:10:37.597Z,101018.05
2019-04-22T06:12:59.613Z,101009.56
2019-04-22T06:15:49.179Z,101012.23
2019-04-22T06:18:09.455Z,101006.60
2019-04-22T06:20:36.957Z,101009.73
2019-04-22T06:23:12.164Z,101004.27
2019-04-22T06:28:13.616Z,101011.38
2019-04-22T06:33:15.290Z,101001.41
2019-04-22T06:38:24.583Z,101007.30
2019-04-22T06:40:42.598Z,101008.16
2019-04-22T06:43:22.410Z,101009.52
2019-04-22T06:45:51.879Z,101008.39
2019-04-22T06:48:23.738Z,101000.99
2019-04-22T06:50:41.671Z,100995.94
2019-04-22T06:53:09.047Z,100991.50
2019-04-22T06:55:44.262Z,100995.67
2019-04-22T06:58:10.572Z,100990.62
2019-04-22T07:00:44.371Z,100986.73
2019-04-22T07:05:41.218Z,100988.05
2019-04-22T07:09:00.808Z,100977.97
2019-04-22T07:10:47.767Z,100973.30
2019-04-22T07:13:16.260Z,100967.02
2019-04-22T07:16:00.416Z,100972.02
2019-04-22T07:18:21.220Z,100965.87
2019-04-22T07:20:53.724Z,100972.65
2019-04-22T07:23:22.912Z,100977.25
2019-04-22T07:25:45.178Z,100971.63
2019-04-22T07:28:15.724Z,100970.11
2019-04-22T07:30:53.042Z,100969.02
2019-04-22T07:33:28.180Z,100965.33
2019-04-22T07:36:16.880Z,100959.69
2019-04-22T07:38:25.526Z,100961.20
2019-04-22T07:40:50.574Z,100952.70
2019-04-22T07:43:32.172Z,100949.66
2019-04-22T07:45:56.559Z,100953.98
2019-04-22T07:51:07.610Z,100949.86
2019-04-22T07:53:23.287Z,100949.42
2019-04-22T07:55:54.963Z,100948.30
2019-04-22T07:58:24.178Z,100942.42
2019-04-22T08:00:57.769Z,100945.67
2019-04-22T08:03:29.301Z,100939.44
2019-04-22T08:06:08.596Z,100939.27
2019-04-22T08:08:33.997Z,100935.03
2019-04-22T08:11:23.804Z,100932.73
2019-04-22T08:13:31.474Z,100923.34
2019-04-22T08:15:58.556Z,100925.13
2019-04-22T08:20:59.028Z,100921.64
2019-04-22T08:23:33.207Z,100918.08
2019-04-22T08:26:01.110Z,100924.98
2019-04-22T08:33:35.441Z,100913.69
2019-04-22T08:36:24.463Z,100902.78
2019-04-22T08:38:43.988Z,100907.94
2019-04-22T08:41:40.235Z,100890.69
2019-04-22T08:43:57.715Z,100895.23
2019-04-22T08:46:30.158Z,100886.94
2019-04-22T08:56:33.595Z,100878.73
2019-04-22T08:58:57.008Z,100874.64
2019-04-22T09:01:23.896Z,100870.74
2019-04-22T09:03:58.514Z,100864.23
2019-04-22T09:11:27.021Z,100852.27
2019-04-22T09:13:55.720Z,100847.95
2019-04-22T09:16:36.264Z,100850.73
2019-04-22T09:24:00.394Z,100835.42
2019-04-22T09:26:31.772Z,100828.94
2019-04-22T09:28:59.403Z,100818.91
2019-04-22T09:31:24.263Z,100816.13
2019-04-22T09:33:53.184Z,100810.62
2019-04-22T09:39:12.702Z,100807.50
2019-04-22T09:41:36.704Z,100801.12
2019-04-22T09:46:36.160Z,100800.63
2019-04-22T09:49:10.044Z,100787.97
2019-04-22T09:51:30.935Z,100789.41
2019-04-22T09:54:12.458Z,100784.73
2019-04-22T09:56:38.767Z,100778.63
2019-04-22T09:59:05.869Z,100777.09
2019-04-22T10:02:02.375Z,100771.18
2019-04-22T10:04:08.291Z,100769.79
2019-04-22T10:06:40.329Z,100765.29
2019-04-22T10:09:26.052Z,100763.37
2019-04-22T10:14:05.541Z,100758.55
2019-04-22T10:16:39.342Z,100751.83
2019-04-22T10:19:04.433Z,100745.87
2019-04-22T10:26:39.817Z,100737.20
2019-04-22T10:31:37.162Z,100721.24
2019-04-22T10:33:56.050Z,100721.63
2019-04-22T10:36:13.162Z,100715.83
2019-04-22T10:38:42.198Z,100713.61
2019-04-22T10:41:12.211Z,100719.36
2019-04-22T10:43:41.250Z,100712.95
2019-04-22T10:46:10.530Z,100701.45
2019-04-22T10:48:40.102Z,100694.67
2019-04-22T10:51:08.807Z,100697.63
2019-04-22T10:53:37.614Z,100699.19
2019-04-22T10:56:07.224Z,100688.45
2019-04-22T10:58:35.789Z,100678.73
2019-04-22T11:01:05.426Z,100683.57
2019-04-22T11:03:35.248Z,100672.94
2019-04-22T11:06:05.512Z,100669.71
2019-04-22T11:08:43.484Z,100664.41
2019-04-22T11:11:20.442Z,100668.31
2019-04-22T11:13:35.843Z,100659.53
2019-04-22T11:18:45.463Z,100654.39
2019-04-22T11:21:15.660Z,100644.39
2019-04-22T11:23:44.777Z,100641.67
2019-04-22T11:26:13.369Z,100641.67
2019-04-22T11:28:43.309Z,100645.95
2019-04-22T11:31:12.490Z,100634.59
2019-04-22T11:33:41.053Z,100632.16
2019-04-22T11:36:10.116Z,100634.94
2019-04-22T11:38:45.877Z,100622.79
2019-04-22T11:41:09.396Z,100618.50
2019-04-22T11:43:38.983Z,100619.84
2019-04-22T11:46:09.379Z,100613.87
2019-04-22T11:48:38.224Z,100623.54
2019-04-22T11:51:06.896Z,100604.25
2019-04-22T11:53:36.700Z,100609.13
2019-04-22T11:56:06.947Z,100600.97
2019-04-22T11:58:37.021Z,100591.23
2019-04-22T12:01:06.995Z,100593.17
2019-04-22T12:03:35.850Z,100589.45
2019-04-22T12:06:04.402Z,100586.44
2019-04-22T12:08:33.975Z,100585.56
2019-04-22T12:11:05.788Z,100582.46
2019-04-22T12:13:33.865Z,100584.19
2019-04-22T12:16:03.288Z,100579.98
2019-04-22T12:18:33.333Z,100576.78
2019-04-22T12:21:03.578Z,100575.27
2019-04-22T12:23:32.719Z,100567.33
2019-04-22T12:26:05.864Z,100567.81
2019-04-22T12:28:32.976Z,100559.34
2019-04-22T12:31:01.796Z,100543.94
2019-04-22T12:33:31.636Z,100540.59
2019-04-22T12:36:00.502Z,100539.71
2019-04-22T12:38:29.471Z,100536.72
2019-04-22T12:41:04.364Z,100538.50
2019-04-22T12:43:29.829Z,100528.48
2019-04-22T12:46:00.476Z,100516.90
2019-04-22T12:48:29.140Z,100515.74
2019-04-22T12:50:58.501Z,100526.33
2019-04-22T12:53:28.032Z,100512.43
2019-04-22T12:55:57.431Z,100517.90
2019-04-22T12:58:27.669Z,100502.85
2019-04-22T13:00:57.036Z,100508.52
2019-04-22T13:03:26.377Z,100504.52
2019-04-22T13:05:56.163Z,100506.40
2019-04-22T13:08:25.582Z,100504.40
2019-04-22T13:11:00.914Z,100502.03
2019-04-22T13:13:25.204Z,100489.11
2019-04-22T13:15:55.064Z,100490.25
2019-04-22T13:18:31.803Z,100477.66
2019-04-22T13:20:54.722Z,100473.90
2019-04-22T13:23:23.450Z,100476.17
2019-04-22T13:25:52.643Z,100471.45
2019-04-22T13:28:21.340Z,100463.34
2019-04-22T13:30:50.612Z,100457.70
2019-04-22T13:33:19.320Z,100446.76
2019-04-22T13:35:48.248Z,100449.02
2019-04-22T13:38:17.362Z,100459.73
2019-04-22T13:41:02.163Z,100453.97
2019-04-22T13:43:16.798Z,100453.87
2019-04-22T13:45:45.759Z,100449.00
2019-04-22T13:51:14.814Z,100445.36
2019-04-22T13:54:14.395Z,100454.91
2019-04-22T13:56:08.331Z,100441.39
2019-04-22T13:58:34.695Z,100436.13
2019-04-22T14:00:46.800Z,100437.73
2019-04-22T14:03:18.381Z,100430.41
2019-04-22T14:05:48.888Z,100438.58
2019-04-22T14:08:18.441Z,100432.54
2019-04-22T14:10:48.421Z,100426.95
2019-04-22T14:13:17.055Z,100424.16
2019-04-22T14:15:46.762Z,100419.58
2019-04-22T14:18:16.807Z,100411.72
2019-04-22T14:20:46.857Z,100407.25
2019-04-22T14:23:17.099Z,100400.98
2019-04-22T14:25:46.399Z,100411.21
2019-04-22T14:28:17.552Z,100408.26
2019-04-22T14:30:46.397Z,100405.75
2019-04-22T14:33:16.088Z,100389.34
2019-04-22T14:35:45.790Z,100394.44
2019-04-22T14:38:14.321Z,100383.16
2019-04-22T14:40:43.568Z,100382.91
2019-04-22T14:43:37.954Z,100373.68
2019-04-22T14:46:20.683Z,100369.95
2019-04-22T14:48:42.294Z,100366.80
2019-04-22T14:51:06.057Z,100367.00
2019-04-22T14:53:40.474Z,100360.39
2019-04-22T14:55:46.372Z,100353.70
2019-04-22T14:58:15.230Z,100351.59
2019-04-22T15:00:44.322Z,100348.57
2019-04-22T15:03:15.468Z,100351.41
2019-04-22T15:05:44.303Z,100339.77
2019-04-22T15:08:13.215Z,100346.45
2019-04-22T15:10:42.255Z,100331.31
2019-04-22T15:13:11.567Z,100332.42
2019-04-22T15:15:48.947Z,100330.34
2019-04-22T15:18:17.641Z,100328.53
2019-04-22T15:20:52.708Z,100319.55
2019-04-22T15:23:20.775Z,100327.06
2019-04-22T15:25:50.749Z,100336.29
2019-04-22T15:28:19.671Z,100325.70
2019-04-22T15:30:48.286Z,100325.55
2019-04-22T15:33:19.417Z,100311.94
2019-04-22T15:35:49.446Z,100321.86
2019-04-22T15:38:20.877Z,100308.45
2019-04-22T15:40:49.020Z,100313.70
2019-04-22T15:43:17.672Z,100298.73
2019-04-22T15:45:46.728Z,100310.88
2019-04-22T15:48:16.765Z,100314.53
2019-04-22T15:50:46.681Z,100311.05
2019-04-22T15:53:15.872Z,100305.97
2019-04-22T15:55:44.887Z,100311.28
2019-04-22T15:58:13.585Z,100304.14
2019-04-22T16:00:55.363Z,100300.91
2019-04-22T16:03:12.708Z,100298.92
2019-04-22T16:05:41.931Z,100298.05
2019-04-22T16:08:10.916Z,100295.19
2019-04-22T16:10:39.932Z,100300.65
2019-04-22T16:13:16.469Z,100302.47
2019-04-22T16:15:40.116Z,100297.70
2019-04-22T16:18:10.983Z,100293.70
2019-04-22T16:20:40.532Z,100297.80
2019-04-22T16:23:20.254Z,100290.14
2019-04-22T16:25:51.423Z,100286.91
2019-04-22T16:28:21.510Z,100298.31
2019-04-22T16:30:51.105Z,100290.03
2019-04-22T16:33:21.488Z,100291.19
2019-04-22T16:35:50.876Z,100297.19
2019-04-22T16:38:19.541Z,100287.59
2019-04-22T16:40:48.628Z,100292.33
2019-04-22T16:43:17.373Z,100285.53
2019-04-22T16:45:47.550Z,100290.12
2019-04-22T16:48:17.748Z,100282.11
2019-04-22T16:50:48.647Z,100275.81
2019-04-22T16:53:16.948Z,100275.91
2019-04-22T16:55:46.651Z,100281.47
2019-04-22T16:58:16.638Z,100282.08
2019-04-22T17:00:46.909Z,100279.22
2019-04-22T17:03:24.756Z,100285.23
2019-04-22T17:06:11.782Z,100270.06
2019-04-22T17:08:40.640Z,100270.38
2019-04-22T17:11:09.744Z,100272.42
2019-04-22T17:13:39.897Z,100267.44
2019-04-22T17:16:09.865Z,100263.66
2019-04-22T17:18:39.390Z,100277.87
2019-04-22T17:21:09.175Z,100276.23
2019-04-22T17:23:38.535Z,100281.00
2019-04-22T17:26:08.398Z,100271.48
2019-04-22T17:28:37.455Z,100272.67
2019-04-22T17:31:06.683Z,100270.43
2019-04-22T17:33:35.321Z,100278.69
2019-04-22T17:36:05.395Z,100272.11
2019-04-22T17:38:46.811Z,100272.50
2019-04-22T17:41:20.288Z,100274.08
2019-04-22T17:43:59.225Z,100264.37
2019-04-22T17:46:33.686Z,100272.78
2019-04-22T17:49:12.157Z,100270.20
2019-04-22T17:51:50.322Z,100269.08
2019-04-22T17:54:17.604Z,100273.22
2019-04-22T17:56:43.412Z,100273.02
2019-04-22T17:59:16.517Z,100281.81
2019-04-22T18:01:43.907Z,100277.73
2019-04-22T18:03:59.510Z,100276.42
2019-04-22T18:06:51.588Z,100270.59
2019-04-22T18:09:21.112Z,100280.11
2019-04-22T18:11:47.874Z,100282.89
2019-04-22T18:16:47.625Z,100286.03
2019-04-22T18:19:15.538Z,100292.59
2019-04-22T18:21:44.680Z,100290.52
2019-04-22T18:24:08.127Z,100287.63
2019-04-22T18:26:47.938Z,100289.84
2019-04-22T18:29:17.708Z,100293.03
2019-04-22T18:31:41.171Z,100287.80
2019-04-22T18:34:14.370Z,100300.03
2019-04-22T18:36:49.282Z,100297.30
2019-04-22T18:39:22.600Z,100300.47
2019-04-22T18:41:50.087Z,100297.59
2019-04-22T18:44:22.617Z,100303.70
2019-04-22T18:46:51.131Z,100300.59
2019-04-22T18:49:18.569Z,100315.62
2019-04-22T18:52:02.904Z,100308.55
2019-04-22T18:54:41.078Z,100302.66
2019-04-22T18:57:12.307Z,100314.11
2019-04-22T18:59:27.869Z,100307.98
2019-04-22T19:01:58.833Z,100308.80
2019-04-22T19:04:31.626Z,100306.22
2019-04-22T19:07:17.572Z,100305.25
2019-04-22T19:09:54.460Z,100305.26
2019-04-22T19:12:33.857Z,100304.45
2019-04-22T19:14:52.945Z,100306.45
2019-04-22T19:17:28.478Z,100312.16
2019-04-22T19:19:51.505Z,100312.75
2019-04-22T19:22:14.592Z,100315.11
2019-04-22T19:24:44.253Z,100314.52
2019-04-22T19:27:15.720Z,100320.42
2019-04-22T19:29:54.005Z,100321.20
2019-04-22T19:32:23.211Z,100322.75
2019-04-22T19:34:47.762Z,100325.53
2019-04-22T19:37:17.411Z,100328.67
2019-04-22T19:40:01.568Z,100322.72
2019-04-22T19:42:25.118Z,100322.72
2019-04-22T19:44:50.791Z,100325.06
2019-04-22T19:47:38.654Z,100326.22
2019-04-22T19:49:58.106Z,100331.31
2019-04-22T19:52:24.947Z,100332.89
2019-04-22T19:54:59.360Z,100328.56
2019-04-22T19:57:17.667Z,100328.34
2019-04-22T19:59:56.248Z,100337.53
2019-04-22T20:02:44.823Z,100329.64
2019-04-22T20:05:24.622Z,100329.80
2019-04-22T20:07:41.593Z,100330.16
2019-04-22T20:10:20.584Z,100333.31
2019-04-22T20:12:42.523Z,100334.45
2019-04-22T20:15:14.492Z,100332.84
2019-04-22T20:18:11.485Z,100326.71
2019-04-22T20:20:22.804Z,100321.73
2019-04-22T20:22:47.870Z,100322.35
2019-04-22T20:25:07.627Z,100324.31
2019-04-22T20:27:58.077Z,100324.47
2019-04-22T20:30:23.155Z,100323.64
2019-04-22T20:32:47.402Z,100325.36
2019-04-22T20:35:24.500Z,100327.23
2019-04-22T20:37:55.002Z,100329.98
2019-04-22T20:40:25.286Z,100324.63
2019-04-22T20:45:29.127Z,100327.52
2019-04-22T20:47:47.862Z,100322.88
2019-04-22T20:50:25.060Z,100318.70
2019-04-22T20:52:59.082Z,100319.09
2019-04-22T20:55:21.843Z,100314.91
2019-04-22T20:58:00.808Z,100316.81
2019-04-22T21:00:22.414Z,100310.97
2019-04-22T21:02:50.478Z,100308.02
2019-04-22T21:05:25.162Z,100308.02
2019-04-22T21:08:08.414Z,100307.77
2019-04-22T21:10:25.674Z,100310.70
2019-04-22T21:12:57.304Z,100309.45
2019-04-22T21:15:37.194Z,100317.88
2019-04-22T21:18:00.848Z,100311.59
2019-04-22T21:20:36.785Z,100309.13
2019-04-22T21:23:02.613Z,100303.99
2019-04-22T21:25:24.238Z,100305.88
2019-04-22T21:28:04.496Z,100304.83
2019-04-22T21:30:32.273Z,100306.13
2019-04-22T21:32:58.256Z,100305.75
2019-04-22T21:35:55.856Z,100304.93
2019-04-22T21:38:11.289Z,100301.13
2019-04-22T21:40:35.812Z,100303.48
2019-04-22T21:43:10.700Z,100298.80
2019-04-22T21:45:28.087Z,100295.84
2019-04-22T21:53:14.224Z,100284.92
2019-04-22T21:55:48.954Z,100285.64
2019-04-22T21:58:12.811Z,100286.50
2019-04-22T22:01:00.818Z,100280.85
2019-04-22T22:03:19.422Z,100278.34
2019-04-22T22:05:41.642Z,100272.98
2019-04-22T22:08:23.450Z,100278.73
2019-04-22T22:10:45.247Z,100278.73
2019-04-22T22:13:16.970Z,100280.57
2019-04-22T22:15:47.496Z,100280.57
2019-04-22T22:18:16.521Z,100279.78
2019-04-22T22:21:09.559Z,100277.91
2019-04-22T22:23:25.315Z,100281.47
2019-04-22T22:25:47.710Z,100278.73
2019-04-22T22:28:38.297Z,100274.76
2019-04-22T22:30:59.276Z,100279.47
2019-04-22T22:33:17.488Z,100274.00
2019-04-22T22:35:52.017Z,100275.87
2019-04-22T22:38:19.491Z,100264.37
2019-04-22T22:40:34.491Z,100272.63
2019-04-22T22:43:11.736Z,100270.52
2019-04-22T22:45:39.761Z,100273.55
2019-04-22T22:48:32.105Z,100278.17
2019-04-22T22:50:50.919Z,100281.36
2019-04-22T22:53:29.079Z,100276.81
2019-04-22T22:55:53.273Z,100274.70
2019-04-22T22:58:22.543Z,100271.91
2019-04-22T23:00:50.909Z,100259.62
2019-04-22T23:03:40.000Z,100273.08
2019-04-22T23:05:59.041Z,100258.48
2019-04-22T23:08:26.411Z,100258.48
2019-04-22T23:11:00.357Z,100255.02
2019-04-22T23:15:53.016Z,100263.22
2019-04-22T23:18:05.885Z,100260.15
2019-04-22T23:20:39.894Z,100260.73
2019-04-22T23:23:26.758Z,100255.52
2019-04-22T23:26:00.626Z,100243.72
2019-04-22T23:28:26.650Z,100239.11
2019-04-22T23:31:07.867Z,100246.39
2019-04-22T23:33:42.487Z,100243.44
2019-04-22T23:36:08.662Z,100239.66
2019-04-22T23:38:53.719Z,100234.68
2019-04-22T23:44:10.152Z,100237.16
2019-04-22T23:46:52.198Z,100229.42
2019-04-22T23:49:22.086Z,100230.88
2019-04-22T23:52:02.842Z,100221.41
2019-04-22T23:54:35.829Z,100221.78
2019-04-22T23:56:52.225Z,100220.91
2019-04-22T23:59:38.299Z,100209.92
